Time;durP1;ratioP1;P1;durP2;ratioP2;P2;SDS_P1;SDS_P2;PMS_P1;PMS_P2;Temp;Humidity;BMP_temperature;BMP_pressure;BME280_temperature;BME280_humidity;BME280_pressure;Samples;Min_cycle;Max_cycle;Signal;HPM_P1;HPM_P2
2023/08/21 00:00:03;;;;;;;2.90;1.93;;;18.10;99.90;;;;;;5058436;28;20199;-77
2023/08/21 00:02:29;;;;;;;5.53;2.67;;;18.10;99.90;;;;;;5057942;28;20224;-77
2023/08/21 00:04:55;;;;;;;5.30;2.30;;;18.10;99.90;;;;;;5058486;28;20185;-78
2023/08/21 00:07:21;;;;;;;7.53;2.27;;;18.10;99.90;;;;;;5059991;28;20221;-78
2023/08/21 00:09:46;;;;;;;10.50;2.60;;;18.10;99.90;;;;;;5059636;28;20218;-78
2023/08/21 00:12:12;;;;;;;5.47;2.20;;;18.10;99.90;;;;;;5058265;28;20195;-79
2023/08/21 00:14:37;;;;;;;6.63;2.00;;;18.10;99.90;;;;;;5059023;28;20186;-78
2023/08/21 00:17:03;;;;;;;3.93;1.63;;;18.00;99.90;;;;;;5059608;28;20573;-78
2023/08/21 00:19:29;;;;;;;9.30;2.40;;;18.00;99.90;;;;;;5058631;28;20290;-78
2023/08/21 00:21:55;;;;;;;6.83;2.13;;;18.00;99.90;;;;;;5059809;28;20191;-79
2023/08/21 00:24:20;;;;;;;4.43;2.10;;;18.00;99.90;;;;;;5059148;28;20624;-79
2023/08/21 00:26:46;;;;;;;5.33;1.73;;;18.00;99.90;;;;;;5059055;28;20316;-78
2023/08/21 00:29:12;;;;;;;8.67;1.83;;;18.10;99.90;;;;;;5059250;28;20190;-78
2023/08/21 00:31:37;;;;;;;3.90;1.80;;;18.00;99.90;;;;;;5058899;28;20187;-78
2023/08/21 00:34:03;;;;;;;5.93;2.00;;;17.90;99.90;;;;;;5058922;28;20259;-78
2023/08/21 00:36:28;;;;;;;7.77;2.03;;;17.90;99.90;;;;;;5059209;28;20671;-78
2023/08/21 00:38:54;;;;;;;7.90;2.23;;;17.90;99.90;;;;;;5059405;28;20519;-78
2023/08/21 00:41:19;;;;;;;8.00;2.27;;;17.90;99.90;;;;;;5059123;28;20271;-78
2023/08/21 00:43:45;;;;;;;4.07;2.03;;;17.90;99.90;;;;;;5058269;28;20259;-78
2023/08/21 00:46:10;;;;;;;7.17;2.50;;;17.70;99.90;;;;;;5059115;28;20203;-78
2023/08/21 00:48:37;;;;;;;8.03;2.07;;;17.80;99.90;;;;;;5058980;28;20172;-78
2023/08/21 00:51:03;;;;;;;7.03;1.93;;;18.00;99.90;;;;;;5058370;28;20191;-78
2023/08/21 00:53:29;;;;;;;5.33;1.90;;;17.80;99.90;;;;;;5057030;28;20194;-78
2023/08/21 00:55:55;;;;;;;2.77;1.70;;;17.70;99.90;;;;;;5058538;28;20175;-78
2023/08/21 00:58:20;;;;;;;8.43;2.30;;;17.80;99.90;;;;;;5058440;28;20284;-78
2023/08/21 01:00:48;;;;;;;5.10;1.90;;;17.90;99.90;;;;;;5056592;28;20200;-78
2023/08/21 01:03:14;;;;;;;5.27;2.10;;;17.70;99.90;;;;;;5058463;28;20193;-79
2023/08/21 01:05:40;;;;;;;12.73;1.83;;;17.70;99.90;;;;;;5058252;28;20193;-78
2023/08/21 01:08:14;;;;;;;7.20;2.03;;;17.70;99.90;;;;;;5058341;28;20163;-78
2023/08/21 01:10:52;;;;;;;9.73;1.80;;;17.70;99.90;;;;;;5058041;28;20168;-78
2023/08/21 01:13:51;;;;;;;9.17;2.27;;;17.60;99.90;;;;;;5058431;28;20179;-78
2023/08/21 01:16:17;;;;;;;10.13;2.00;;;17.60;99.90;;;;;;5056962;28;20282;-78
2023/08/21 01:18:47;;;;;;;6.23;2.43;;;17.60;99.90;;;;;;5057991;28;20235;-78
2023/08/21 01:21:13;;;;;;;6.30;2.00;;;17.60;99.90;;;;;;5056836;28;20211;-78
2023/08/21 01:23:41;;;;;;;5.60;1.87;;;17.60;99.90;;;;;;5056283;28;20228;-78
2023/08/21 01:26:07;;;;;;;6.73;2.10;;;17.50;99.90;;;;;;5058356;28;20228;-78
2023/08/21 01:28:34;;;;;;;5.00;1.97;;;17.60;99.90;;;;;;5057668;28;20278;-79
2023/08/21 01:31:11;;;;;;;7.83;1.90;;;17.50;99.90;;;;;;5056712;28;20212;-78
2023/08/21 01:33:50;;;;;;;6.30;1.63;;;17.50;99.90;;;;;;5048161;28;20188;-78
2023/08/21 01:36:17;;;;;;;6.33;1.70;;;17.50;99.90;;;;;;5044248;28;20180;-78
2023/08/21 01:38:44;;;;;;;4.60;1.80;;;17.50;99.90;;;;;;5057264;28;20179;-78
2023/08/21 01:41:09;;;;;;;4.63;1.97;;;17.50;99.90;;;;;;5054880;28;20219;-78
2023/08/21 01:43:35;;;;;;;4.23;1.80;;;17.30;99.90;;;;;;5056893;28;20639;-78
2023/08/21 01:46:02;;;;;;;4.97;1.60;;;17.40;99.90;;;;;;5042800;28;20601;-78
2023/08/21 01:48:28;;;;;;;6.67;1.97;;;17.40;99.90;;;;;;5036457;28;20172;-78
2023/08/21 01:50:53;;;;;;;3.73;1.90;;;17.40;99.90;;;;;;5037400;28;20494;-78
2023/08/21 01:53:19;;;;;;;5.87;1.90;;;17.40;99.90;;;;;;5036610;28;20187;-78
2023/08/21 01:55:44;;;;;;;10.93;1.93;;;17.40;99.90;;;;;;5037480;28;20212;-78
2023/08/21 01:58:10;;;;;;;9.30;2.07;;;17.20;99.90;;;;;;5035534;28;20181;-79
2023/08/21 02:00:35;;;;;;;5.70;1.77;;;17.40;99.90;;;;;;5043343;28;20815;-78
2023/08/21 02:03:01;;;;;;;5.17;2.17;;;17.30;99.90;;;;;;5055589;28;20176;-78
2023/08/21 02:05:27;;;;;;;4.70;1.73;;;17.20;99.90;;;;;;5057259;28;20203;-78
2023/08/21 02:07:52;;;;;;;8.03;1.87;;;17.20;99.90;;;;;;5065109;28;20174;-78
2023/08/21 02:10:18;;;;;;;4.30;1.90;;;17.20;99.90;;;;;;5067334;28;20198;-77
2023/08/21 02:12:43;;;;;;;3.93;1.73;;;17.20;99.90;;;;;;5057222;28;20195;-78
2023/08/21 02:15:10;;;;;;;3.90;1.70;;;17.20;99.90;;;;;;5061084;28;20190;-78
2023/08/21 02:17:35;;;;;;;6.50;1.83;;;17.20;99.90;;;;;;5057608;28;20203;-78
2023/08/21 02:20:01;;;;;;;5.30;2.03;;;17.10;99.90;;;;;;5064855;28;20199;-78
2023/08/21 02:22:27;;;;;;;4.67;1.60;;;17.10;99.90;;;;;;5062104;28;20191;-78
2023/08/21 02:24:53;;;;;;;7.70;1.70;;;17.10;99.90;;;;;;5057093;28;20168;-78
2023/08/21 02:27:18;;;;;;;9.73;1.77;;;17.10;99.90;;;;;;5058021;28;20234;-79
2023/08/21 02:29:44;;;;;;;4.63;1.27;;;17.10;99.90;;;;;;5057100;28;20675;-78
2023/08/21 02:32:09;;;;;;;4.20;1.60;;;17.00;99.90;;;;;;5057531;28;20199;-79
2023/08/21 02:34:35;;;;;;;4.10;1.50;;;17.00;99.90;;;;;;5057559;28;20695;-78
2023/08/21 02:37:01;;;;;;;5.27;1.70;;;17.00;99.90;;;;;;5056779;28;20198;-78
2023/08/21 02:39:26;;;;;;;4.77;1.80;;;17.00;99.90;;;;;;5057149;28;20295;-78
2023/08/21 02:41:52;;;;;;;6.27;1.67;;;17.00;99.90;;;;;;5056669;28;20222;-78
2023/08/21 02:44:17;;;;;;;5.67;1.70;;;17.00;99.90;;;;;;5056506;28;20171;-78
2023/08/21 02:46:43;;;;;;;6.07;1.97;;;17.00;99.90;;;;;;5056429;28;20182;-79
2023/08/21 02:49:08;;;;;;;7.87;2.00;;;17.00;99.90;;;;;;5056765;28;20164;-79
2023/08/21 02:51:34;;;;;;;5.93;1.83;;;16.90;99.90;;;;;;5055969;28;20259;-79
2023/08/21 02:53:59;;;;;;;2.70;1.50;;;16.90;99.90;;;;;;5057209;28;20171;-78
2023/08/21 02:56:25;;;;;;;6.37;1.80;;;16.90;99.90;;;;;;5056111;28;20182;-78
2023/08/21 02:58:50;;;;;;;8.10;2.00;;;16.90;99.90;;;;;;5060387;28;20179;-78
2023/08/21 03:01:16;;;;;;;5.60;1.80;;;16.90;99.90;;;;;;5055265;28;20208;-78
2023/08/21 03:03:42;;;;;;;6.63;1.70;;;16.90;99.90;;;;;;5057726;28;20171;-78
2023/08/21 03:06:08;;;;;;;5.03;1.50;;;16.90;99.90;;;;;;5058002;28;20186;-78
2023/08/21 03:08:33;;;;;;;7.93;1.83;;;16.80;99.90;;;;;;5057413;28;20164;-78
2023/08/21 03:10:59;;;;;;;6.43;1.87;;;16.90;99.90;;;;;;5056840;28;20678;-78
2023/08/21 03:13:24;;;;;;;3.90;1.83;;;16.80;99.90;;;;;;5059331;28;20237;-79
2023/08/21 03:15:50;;;;;;;3.70;1.60;;;16.70;99.90;;;;;;5057058;28;20699;-78
2023/08/21 03:18:16;;;;;;;4.37;1.63;;;16.70;99.90;;;;;;5056307;28;20207;-78
2023/08/21 03:20:47;;;;;;;7.63;1.90;;;16.70;99.90;;;;;;5056191;28;20210;-78
2023/08/21 03:23:13;;;;;;;6.40;1.60;;;16.80;99.90;;;;;;5056595;28;20183;-78
2023/08/21 03:25:39;;;;;;;5.57;1.70;;;16.80;99.90;;;;;;5056784;28;20199;-78
2023/08/21 03:28:04;;;;;;;4.87;1.70;;;16.80;99.90;;;;;;5056256;28;20651;-79
2023/08/21 03:30:30;;;;;;;7.17;1.83;;;16.80;99.90;;;;;;5056341;28;20184;-79
2023/08/21 03:32:55;;;;;;;6.73;1.70;;;16.80;99.90;;;;;;5055064;28;20243;-78
2023/08/21 03:35:21;;;;;;;4.97;1.57;;;16.80;99.90;;;;;;5055185;28;20262;-78
2023/08/21 03:37:46;;;;;;;8.33;1.83;;;16.70;99.90;;;;;;5056427;28;20176;-78
2023/08/21 03:40:12;;;;;;;7.73;2.10;;;16.70;99.90;;;;;;5056432;28;20200;-78
2023/08/21 03:42:38;;;;;;;6.07;1.60;;;16.70;99.90;;;;;;5056026;28;20309;-78
2023/08/21 03:45:04;;;;;;;4.70;1.60;;;16.70;99.90;;;;;;5055469;28;20171;-78
2023/08/21 03:47:30;;;;;;;5.53;1.50;;;16.70;99.90;;;;;;5057508;28;20167;-78
2023/08/21 03:49:56;;;;;;;9.53;2.17;;;16.70;99.90;;;;;;5059611;28;20581;-78
2023/08/21 03:52:21;;;;;;;5.57;1.30;;;16.60;99.90;;;;;;5059632;28;20274;-78
2023/08/21 03:54:47;;;;;;;5.20;1.43;;;16.60;99.90;;;;;;5059666;28;20229;-78
2023/08/21 03:57:13;;;;;;;4.13;1.67;;;16.60;99.90;;;;;;5058838;28;20176;-78
2023/08/21 03:59:38;;;;;;;8.93;2.13;;;16.60;99.90;;;;;;5059758;28;20659;-78
2023/08/21 04:02:04;;;;;;;6.07;1.70;;;16.70;99.90;;;;;;5059788;28;20253;-79
2023/08/21 04:04:29;;;;;;;5.07;1.87;;;16.60;99.90;;;;;;5059717;28;20171;-78
2023/08/21 04:06:55;;;;;;;7.13;1.50;;;16.60;99.90;;;;;;5062142;28;20176;-79
2023/08/21 04:09:20;;;;;;;6.57;2.10;;;16.60;99.90;;;;;;5066081;28;20176;-79
2023/08/21 04:11:46;;;;;;;6.50;2.10;;;16.60;99.90;;;;;;5060132;28;20200;-79
2023/08/21 04:14:11;;;;;;;4.97;1.87;;;16.60;99.90;;;;;;5061360;28;20191;-79
2023/08/21 04:16:37;;;;;;;4.97;1.50;;;16.60;99.90;;;;;;5060228;28;20203;-79
2023/08/21 04:19:02;;;;;;;9.60;1.70;;;16.60;99.90;;;;;;5058134;28;20187;-78
2023/08/21 04:21:28;;;;;;;7.03;1.90;;;16.60;99.90;;;;;;5059831;28;20648;-78
2023/08/21 04:23:54;;;;;;;6.23;1.80;;;16.60;99.90;;;;;;5061121;28;20180;-78
2023/08/21 04:26:19;;;;;;;4.87;1.80;;;16.60;99.90;;;;;;5059595;28;20214;-79
2023/08/21 04:28:46;;;;;;;4.30;1.70;;;16.60;99.90;;;;;;5059184;28;20198;-79
2023/08/21 04:31:11;;;;;;;6.80;1.73;;;16.70;99.90;;;;;;5058309;28;20231;-79
2023/08/21 04:33:37;;;;;;;3.70;1.77;;;16.50;99.90;;;;;;5058446;28;20182;-79
2023/08/21 04:36:02;;;;;;;8.30;1.90;;;16.50;99.90;;;;;;5058645;28;20656;-78
2023/08/21 04:38:28;;;;;;;5.90;1.90;;;16.60;99.90;;;;;;5058793;28;20659;-79
2023/08/21 04:40:54;;;;;;;6.37;2.30;;;16.60;99.90;;;;;;5057252;28;20265;-78
2023/08/21 04:43:19;;;;;;;6.90;2.10;;;16.60;99.90;;;;;;5058531;28;20175;-79
2023/08/21 04:45:55;;;;;;;6.40;1.80;;;16.60;99.90;;;;;;5058540;28;20182;-78
2023/08/21 04:48:21;;;;;;;3.70;1.70;;;16.70;99.90;;;;;;5059952;28;20156;-79
2023/08/21 04:50:46;;;;;;;4.30;1.80;;;16.70;99.90;;;;;;5059214;28;20192;-79
2023/08/21 04:53:12;;;;;;;5.53;1.77;;;16.70;99.90;;;;;;5057349;28;20183;-79
2023/08/21 04:55:40;;;;;;;7.43;1.67;;;16.60;99.90;;;;;;5058969;28;20623;-79
2023/08/21 04:58:09;;;;;;;12.73;1.50;;;16.70;99.90;;;;;;5059269;28;20225;-79
2023/08/21 05:00:35;;;;;;;4.63;1.73;;;16.70;99.90;;;;;;5059016;28;20667;-79
2023/08/21 05:03:00;;;;;;;5.53;1.80;;;16.60;99.90;;;;;;5060127;28;20170;-78
2023/08/21 05:05:26;;;;;;;6.47;1.67;;;16.70;99.90;;;;;;5059084;28;20167;-78
2023/08/21 05:07:55;;;;;;;6.23;1.90;;;16.80;99.90;;;;;;5058716;28;20175;-78
2023/08/21 05:10:20;;;;;;;6.53;1.90;;;16.60;99.90;;;;;;5058497;28;20186;-79
2023/08/21 05:12:46;;;;;;;6.50;2.33;;;16.70;99.90;;;;;;5059592;28;20191;-78
2023/08/21 05:15:12;;;;;;;5.73;1.83;;;16.80;99.90;;;;;;5061489;28;20168;-79
2023/08/21 05:17:38;;;;;;;5.77;1.70;;;16.70;99.90;;;;;;5061405;28;20175;-79
2023/08/21 05:20:04;;;;;;;4.70;1.80;;;16.80;99.90;;;;;;5065291;28;20575;-79
2023/08/21 05:22:30;;;;;;;6.03;2.00;;;16.80;99.90;;;;;;5065779;28;20199;-79
2023/08/21 05:24:55;;;;;;;4.63;1.90;;;16.80;99.90;;;;;;5065828;28;20224;-79
2023/08/21 05:27:21;;;;;;;5.03;1.77;;;16.80;99.90;;;;;;5064241;28;20729;-79
2023/08/21 05:29:47;;;;;;;5.10;2.00;;;16.80;99.90;;;;;;5063658;28;20194;-79
2023/08/21 05:32:12;;;;;;;5.87;1.77;;;17.00;99.90;;;;;;5060953;28;20245;-79
2023/08/21 05:34:38;;;;;;;4.30;1.90;;;16.80;99.90;;;;;;5072914;28;20172;-79
2023/08/21 05:37:03;;;;;;;6.37;2.07;;;16.90;99.90;;;;;;5072077;28;20176;-79
2023/08/21 05:39:29;;;;;;;5.80;1.90;;;16.90;99.90;;;;;;5070553;28;20192;-79
2023/08/21 05:41:54;;;;;;;7.77;2.60;;;17.00;99.90;;;;;;5068140;28;20226;-80
2023/08/21 05:44:20;;;;;;;4.30;1.60;;;17.00;99.90;;;;;;5069395;28;20195;-80
2023/08/21 05:46:46;;;;;;;5.43;1.93;;;16.90;99.90;;;;;;5066149;28;20171;-80
2023/08/21 05:49:11;;;;;;;3.73;1.90;;;17.00;99.90;;;;;;5066318;28;20171;-80
2023/08/21 05:51:37;;;;;;;4.87;2.13;;;17.00;99.90;;;;;;5067886;28;20607;-80
2023/08/21 05:54:02;;;;;;;7.83;1.77;;;17.10;99.90;;;;;;5067091;28;20176;-80
2023/08/21 05:56:28;;;;;;;13.37;2.50;;;17.10;99.90;;;;;;5067009;28;20195;-80
2023/08/21 05:58:53;;;;;;;6.50;2.30;;;17.00;99.90;;;;;;5067208;28;20183;-80
2023/08/21 06:01:19;;;;;;;6.57;1.80;;;17.10;99.90;;;;;;5066027;28;20225;-80
2023/08/21 06:03:45;;;;;;;7.23;2.13;;;17.10;99.90;;;;;;5067373;28;20203;-82
2023/08/21 06:06:10;;;;;;;8.90;2.27;;;17.10;99.90;;;;;;5068541;28;20205;-80
2023/08/21 06:08:36;;;;;;;5.07;1.90;;;17.20;99.90;;;;;;5067014;28;20176;-80
2023/08/21 06:11:01;;;;;;;6.00;2.10;;;17.20;99.90;;;;;;5066067;28;20201;-80
2023/08/21 06:13:27;;;;;;;2.53;1.90;;;17.30;99.90;;;;;;5068043;28;20168;-80
2023/08/21 06:15:53;;;;;;;6.37;2.03;;;17.40;99.90;;;;;;5066313;28;20176;-80
2023/08/21 06:18:19;;;;;;;7.13;2.17;;;17.60;99.90;;;;;;5064501;28;20700;-80
2023/08/21 06:20:44;;;;;;;6.27;1.90;;;17.50;99.90;;;;;;5065520;28;20235;-80
2023/08/21 06:23:10;;;;;;;5.33;2.03;;;17.60;99.90;;;;;;5063948;28;20168;-81
2023/08/21 06:25:36;;;;;;;5.83;2.00;;;17.60;99.90;;;;;;5064298;28;20187;-80
2023/08/21 06:28:02;;;;;;;10.13;2.63;;;17.70;99.90;;;;;;5062412;28;20187;-80
2023/08/21 06:30:28;;;;;;;7.30;1.90;;;17.90;99.90;;;;;;5064146;28;20183;-80
2023/08/21 06:32:54;;;;;;;6.20;2.20;;;17.90;99.90;;;;;;5062791;28;20191;-79
2023/08/21 06:35:20;;;;;;;8.73;1.90;;;18.00;99.90;;;;;;5063020;28;20218;-80
2023/08/21 06:37:45;;;;;;;7.40;1.97;;;18.20;99.90;;;;;;5063810;28;20167;-80
2023/08/21 06:40:11;;;;;;;6.07;1.70;;;18.20;99.90;;;;;;5065023;28;20667;-80
2023/08/21 06:42:37;;;;;;;7.90;1.80;;;18.10;99.90;;;;;;5064374;28;20235;-80
2023/08/21 06:45:04;;;;;;;8.73;2.17;;;18.20;99.90;;;;;;5064074;28;20186;-80
2023/08/21 06:47:30;;;;;;;8.93;2.17;;;18.20;99.90;;;;;;5062555;28;20176;-80
2023/08/21 06:49:55;;;;;;;5.53;2.00;;;18.20;99.90;;;;;;5062326;28;20199;-80
2023/08/21 06:52:21;;;;;;;4.37;1.77;;;18.30;99.90;;;;;;5064048;28;20245;-80
2023/08/21 06:54:46;;;;;;;5.93;2.20;;;18.30;99.90;;;;;;5062425;28;20186;-80
2023/08/21 06:57:12;;;;;;;4.20;2.17;;;18.30;99.90;;;;;;5064821;28;20175;-80
2023/08/21 06:59:38;;;;;;;4.93;1.70;;;18.30;99.90;;;;;;5063320;28;20202;-80
2023/08/21 07:02:03;;;;;;;3.60;1.80;;;18.40;99.90;;;;;;5065788;28;20217;-80
2023/08/21 07:04:29;;;;;;;7.00;2.13;;;18.50;99.90;;;;;;5065551;28;20176;-80
2023/08/21 07:06:55;;;;;;;6.83;1.90;;;18.50;99.90;;;;;;5065285;28;20225;-80
2023/08/21 07:09:20;;;;;;;4.90;1.70;;;18.50;99.90;;;;;;5065967;28;20176;-80
2023/08/21 07:11:46;;;;;;;6.63;1.70;;;18.70;99.90;;;;;;5063537;28;20233;-80
2023/08/21 07:14:13;;;;;;;5.13;1.77;;;18.70;99.90;;;;;;5065691;28;20182;-80
2023/08/21 07:16:39;;;;;;;4.27;1.60;;;18.80;99.90;;;;;;5064670;28;20182;-80
2023/08/21 07:19:05;;;;;;;7.10;1.70;;;18.90;99.90;;;;;;5065280;28;20172;-80
2023/08/21 07:21:30;;;;;;;4.43;1.60;;;19.00;99.90;;;;;;5063655;28;20314;-80
2023/08/21 07:23:56;;;;;;;7.63;1.67;;;19.20;99.90;;;;;;5068740;28;20180;-80
2023/08/21 07:26:21;;;;;;;8.60;1.67;;;19.30;99.90;;;;;;5068381;28;20226;-80
2023/08/21 07:28:47;;;;;;;7.53;1.80;;;19.30;99.90;;;;;;5067514;28;20191;-80
2023/08/21 07:31:13;;;;;;;6.77;1.70;;;19.30;99.90;;;;;;5068121;28;20756;-80
2023/08/21 07:33:38;;;;;;;4.93;1.57;;;19.40;99.90;;;;;;5065492;28;20179;-80
2023/08/21 07:36:05;;;;;;;6.83;1.70;;;19.60;99.90;;;;;;5066679;28;20639;-81
2023/08/21 07:38:31;;;;;;;5.33;1.53;;;19.80;99.90;;;;;;5067171;28;20234;-80
2023/08/21 07:41:05;;;;;;;6.27;2.00;;;19.80;99.90;;;;;;5066362;28;20695;-81
2023/08/21 07:43:31;;;;;;;4.03;1.43;;;19.80;99.90;;;;;;5060770;28;20648;-79
2023/08/21 07:45:56;;;;;;;6.00;1.80;;;19.80;99.90;;;;;;5046582;28;20263;-79
2023/08/21 07:48:22;;;;;;;3.73;1.37;;;19.80;99.90;;;;;;5045857;28;20526;-80
2023/08/21 07:50:52;;;;;;;5.07;1.80;;;20.00;99.90;;;;;;5046758;28;20280;-80
2023/08/21 07:53:18;;;;;;;4.47;1.63;;;20.00;99.90;;;;;;5047168;28;20258;-79
2023/08/21 07:55:45;;;;;;;3.57;1.70;;;20.00;99.90;;;;;;5048470;28;20648;-80
2023/08/21 07:58:11;;;;;;;3.43;1.70;;;20.10;99.90;;;;;;5046738;28;20176;-80
2023/08/21 08:00:37;;;;;;;6.20;1.57;;;20.20;99.90;;;;;;5047406;28;20720;-80
2023/08/21 08:03:03;;;;;;;5.63;1.67;;;20.20;99.90;;;;;;5046212;28;20184;-80
2023/08/21 08:05:28;;;;;;;6.50;1.87;;;20.30;99.90;;;;;;5046446;28;20176;-80
2023/08/21 08:07:54;;;;;;;3.83;1.80;;;20.40;99.90;;;;;;5046955;28;20199;-80
2023/08/21 08:10:20;;;;;;;4.63;1.70;;;20.40;99.90;;;;;;5049042;28;20200;-80
2023/08/21 08:12:45;;;;;;;5.13;2.00;;;20.20;99.90;;;;;;5048046;28;20614;-80
2023/08/21 08:15:11;;;;;;;5.10;1.73;;;20.60;99.90;;;;;;5047841;28;20180;-80
2023/08/21 08:17:36;;;;;;;6.20;2.00;;;20.70;99.90;;;;;;5049214;28;20518;-80
2023/08/21 08:20:02;;;;;;;4.87;2.10;;;20.60;99.90;;;;;;5049325;28;20211;-80
2023/08/21 08:22:27;;;;;;;8.77;2.47;;;20.70;99.90;;;;;;5050136;28;20200;-79
2023/08/21 08:24:53;;;;;;;7.30;1.90;;;20.80;99.90;;;;;;5049726;28;20173;-80
2023/08/21 08:27:18;;;;;;;3.63;1.73;;;20.80;99.90;;;;;;5051446;28;20180;-80
2023/08/21 08:29:44;;;;;;;4.83;2.73;;;21.00;99.90;;;;;;5056537;28;20196;-80
2023/08/21 08:32:09;;;;;;;6.47;1.73;;;21.00;99.90;;;;;;5056714;28;20231;-81
2023/08/21 08:34:36;;;;;;;7.73;2.30;;;21.10;99.90;;;;;;5046647;28;20200;-80
2023/08/21 08:37:02;;;;;;;5.77;2.30;;;21.40;99.90;;;;;;5041302;28;20193;-79
2023/08/21 08:39:27;;;;;;;5.67;2.43;;;21.40;99.90;;;;;;5040389;28;20686;-79
2023/08/21 08:42:03;;;;;;;4.70;2.20;;;21.50;99.90;;;;;;5039485;28;20204;-79
2023/08/21 08:44:30;;;;;;;6.63;2.10;;;21.50;1.00;;;;;;5041242;28;20172;-79
2023/08/21 08:46:56;;;;;;;7.10;1.70;;;21.70;1.00;;;;;;5038989;28;20176;-78
2023/08/21 08:49:22;;;;;;;7.07;2.10;;;21.60;1.00;;;;;;5040991;28;20187;-79
2023/08/21 08:51:50;;;;;;;7.43;2.00;;;21.60;1.00;;;;;;5039753;28;20596;-79
2023/08/21 08:54:17;;;;;;;6.27;1.93;;;21.70;99.90;;;;;;5039878;28;20176;-79
2023/08/21 08:56:43;;;;;;;6.53;1.90;;;21.70;99.90;;;;;;5042043;28;20241;-79
2023/08/21 08:59:09;;;;;;;5.70;2.07;;;21.70;1.00;;;;;;5040072;28;20176;-79
2023/08/21 09:01:34;;;;;;;4.83;1.90;;;21.90;1.00;;;;;;5042059;28;20731;-80
2023/08/21 09:04:00;;;;;;;5.77;1.93;;;22.00;1.00;;;;;;5041663;28;20264;-79
2023/08/21 09:06:27;;;;;;;6.30;2.07;;;22.00;1.00;;;;;;5040529;28;20283;-80
2023/08/21 09:08:57;;;;;;;8.83;2.07;;;22.00;99.90;;;;;;5041663;28;20223;-79
2023/08/21 09:11:23;;;;;;;4.80;1.97;;;22.10;99.90;;;;;;5042841;28;20208;-79
2023/08/21 09:13:54;;;;;;;8.77;2.47;;;22.20;1.00;;;;;;5039522;28;20188;-79
2023/08/21 09:16:20;;;;;;;4.53;1.90;;;22.30;99.90;;;;;;5041959;28;20176;-80
2023/08/21 09:18:50;;;;;;;4.83;2.00;;;22.30;99.90;;;;;;5040899;28;20203;-79
2023/08/21 09:21:21;;;;;;;4.30;2.00;;;22.30;99.90;;;;;;5038733;28;20375;-79
2023/08/21 09:23:48;;;;;;;9.40;2.00;;;22.40;99.90;;;;;;5038806;28;20176;-79
2023/08/21 09:26:21;;;;;;;4.77;2.07;;;22.40;99.90;;;;;;5043214;28;20168;-80
2023/08/21 09:28:48;;;;;;;4.13;1.63;;;22.50;99.90;;;;;;5041443;28;20188;-80
2023/08/21 09:31:14;;;;;;;4.83;1.63;;;22.50;99.90;;;;;;5039125;28;20200;-79
2023/08/21 09:33:40;;;;;;;6.47;2.17;;;22.60;99.90;;;;;;5041400;28;20177;-79
2023/08/21 09:36:06;;;;;;;7.03;2.27;;;22.60;99.90;;;;;;5039937;28;20180;-79
2023/08/21 09:38:33;;;;;;;4.53;1.77;;;22.80;99.90;;;;;;5041637;28;20242;-79
2023/08/21 09:40:59;;;;;;;10.40;2.07;;;22.80;99.90;;;;;;5041697;28;20240;-79
2023/08/21 09:43:25;;;;;;;6.60;2.00;;;22.80;99.90;;;;;;5041371;28;20565;-79
2023/08/21 09:45:55;;;;;;;6.10;1.90;;;23.00;99.90;;;;;;5041999;28;20527;-80
2023/08/21 09:48:27;;;;;;;9.67;2.20;;;23.00;99.90;;;;;;5042055;28;20175;-80
2023/08/21 09:50:53;;;;;;;5.57;1.93;;;23.10;99.90;;;;;;5040891;28;20204;-80
2023/08/21 09:53:23;;;;;;;5.93;1.90;;;23.10;99.90;;;;;;5042170;28;20176;-80
2023/08/21 09:55:53;;;;;;;5.13;1.63;;;23.10;99.90;;;;;;5041908;28;20659;-79
2023/08/21 09:58:20;;;;;;;6.90;1.90;;;23.20;99.90;;;;;;5040856;28;20204;-79
2023/08/21 10:00:48;;;;;;;3.70;1.70;;;23.30;99.90;;;;;;5041517;28;20196;-79
2023/08/21 10:03:18;;;;;;;5.33;1.60;;;23.20;99.90;;;;;;5043265;28;20172;-80
2023/08/21 10:05:44;;;;;;;4.80;1.67;;;23.30;99.90;;;;;;5043539;28;20200;-80
2023/08/21 10:08:11;;;;;;;6.70;2.10;;;23.30;99.90;;;;;;5039845;28;20620;-80
2023/08/21 10:10:38;;;;;;;6.30;1.80;;;23.50;99.90;;;;;;5043494;28;20164;-82
2023/08/21 10:13:05;;;;;;;4.27;1.70;;;23.50;99.90;;;;;;5041137;28;20211;-79
2023/08/21 10:15:36;;;;;;;6.07;1.60;;;23.60;99.90;;;;;;5042806;28;20168;-80
2023/08/21 10:18:20;;;;;;;5.10;1.93;;;23.70;99.90;;;;;;5043665;28;20176;-80
2023/08/21 10:20:46;;;;;;;5.73;1.80;;;23.70;99.90;;;;;;5042716;28;20192;-79
2023/08/21 10:23:28;;;;;;;5.60;1.90;;;23.80;99.90;;;;;;5041163;28;20183;-79
2023/08/21 10:26:04;;;;;;;4.70;1.60;;;23.80;99.90;;;;;;5039886;28;20160;-80
2023/08/21 10:28:48;;;;;;;6.47;1.80;;;23.80;99.90;;;;;;5040725;28;20188;-80
2023/08/21 10:31:34;;;;;;;4.60;1.70;;;23.80;99.90;;;;;;5041540;28;20210;-80
2023/08/21 10:34:03;;;;;;;6.00;2.00;;;23.80;99.90;;;;;;5040724;28;20168;-79
2023/08/21 10:36:40;;;;;;;6.73;2.00;;;23.90;99.90;;;;;;5044235;28;20169;-79
2023/08/21 10:39:27;;;;;;;5.10;1.77;;;23.90;99.90;;;;;;5054539;28;20183;-79
2023/08/21 10:41:55;;;;;;;5.17;1.80;;;23.90;99.90;;;;;;5048263;28;20203;-80
2023/08/21 10:44:42;;;;;;;6.13;1.93;;;24.20;99.90;;;;;;5037430;28;20736;-80
2023/08/21 10:47:30;;;;;;;6.07;1.60;;;24.00;99.90;;;;;;5038950;28;20652;-80
2023/08/21 10:50:04;;;;;;;5.50;2.20;;;24.00;99.90;;;;;;5039758;28;20568;-79
2023/08/21 10:52:42;;;;;;;4.57;1.57;;;24.10;99.90;;;;;;5037399;28;20196;-80
2023/08/21 10:55:11;;;;;;;3.70;1.47;;;24.20;99.90;;;;;;5038655;28;20160;-79
2023/08/21 10:57:37;;;;;;;8.97;2.13;;;24.30;99.90;;;;;;5038435;28;20230;-79
2023/08/21 11:00:12;;;;;;;5.80;1.90;;;24.40;99.90;;;;;;5039869;28;20195;-79
2023/08/21 11:02:39;;;;;;;6.40;1.87;;;24.40;99.90;;;;;;5040784;28;20263;-79
2023/08/21 11:05:07;;;;;;;3.97;1.47;;;24.30;99.90;;;;;;5039763;28;20638;-80
2023/08/21 11:07:41;;;;;;;4.57;1.90;;;24.40;99.90;;;;;;5039534;28;20169;-80
2023/08/21 11:10:10;;;;;;;4.50;1.50;;;24.50;99.90;;;;;;5038441;28;20172;-79
2023/08/21 11:12:36;;;;;;;6.33;1.83;;;24.50;99.90;;;;;;5040003;28;20640;-79
2023/08/21 11:15:03;;;;;;;6.23;1.73;;;24.60;99.90;;;;;;5039319;28;20172;-80
2023/08/21 11:17:28;;;;;;;7.30;1.80;;;24.70;47.70;;;;;;5039274;28;20199;-79
2023/08/21 11:19:56;;;;;;;6.30;1.57;;;24.70;4.60;;;;;;5040032;28;20208;-80
2023/08/21 11:22:30;;;;;;;6.88;1.92;;;24.70;89.30;;;;;;5038129;28;20200;-79
2023/08/21 11:24:55;;;;;;;7.65;1.88;;;24.80;99.90;;;;;;5040533;28;20182;-79
2023/08/21 11:27:21;;;;;;;4.23;1.97;;;24.80;99.90;;;;;;5039657;28;20243;-79
2023/08/21 11:29:51;;;;;;;6.50;1.80;;;25.00;99.90;;;;;;5039804;28;20188;-80
2023/08/21 11:32:21;;;;;;;4.05;1.90;;;24.90;99.90;;;;;;5038578;28;20220;-79
2023/08/21 11:34:57;;;;;;;6.45;2.47;;;24.90;99.90;;;;;;5038564;28;20187;-79
2023/08/21 11:37:25;;;;;;;5.25;1.90;;;24.90;92.60;;;;;;5039416;28;20187;-79
2023/08/21 11:39:55;;;;;;;6.35;1.92;;;25.00;74.50;;;;;;5036963;28;20207;-79
2023/08/21 11:42:28;;;;;;;4.30;1.55;;;25.00;1.00;;;;;;5037893;28;20193;-80
2023/08/21 11:44:54;;;;;;;6.53;2.20;;;25.10;33.70;;;;;;5039735;28;20252;-79
2023/08/21 11:47:21;;;;;;;4.30;1.65;;;25.10;1.00;;;;;;5037454;28;20203;-80
2023/08/21 11:49:49;;;;;;;5.07;2.00;;;25.20;91.50;;;;;;5038113;28;20172;-79
2023/08/21 11:52:18;;;;;;;4.60;2.08;;;25.30;63.30;;;;;;5038939;28;20185;-80
2023/08/21 11:54:48;;;;;;;6.68;2.13;;;25.30;1.00;;;;;;5039642;28;20184;-80
2023/08/21 11:57:14;;;;;;;6.40;1.80;;;25.40;1.00;;;;;;5039252;28;20164;-80
2023/08/21 11:59:40;;;;;;;3.38;1.55;;;25.30;1.00;;;;;;5041953;28;20244;-79
2023/08/21 12:02:28;;;;;;;4.35;1.80;;;25.40;99.90;;;;;;5044839;28;20231;-80
2023/08/21 12:05:13;;;;;;;5.25;1.92;;;25.30;99.90;;;;;;5045189;28;20183;-80
2023/08/21 12:07:39;;;;;;;7.57;2.00;;;25.40;35.50;;;;;;5044758;28;20196;-80
2023/08/21 12:10:05;;;;;;;4.45;1.55;;;25.40;99.90;;;;;;5048224;28;20169;-80
2023/08/21 12:12:30;;;;;;;5.68;1.70;;;25.50;99.90;;;;;;5050163;28;20691;-80
2023/08/21 12:14:56;;;;;;;6.70;2.05;;;25.50;99.90;;;;;;5048616;28;20267;-80
2023/08/21 12:17:22;;;;;;;5.30;1.80;;;25.40;99.90;;;;;;5049581;28;20640;-80
2023/08/21 12:19:48;;;;;;;4.10;1.60;;;25.30;19.00;;;;;;5048921;28;20223;-80
2023/08/21 12:22:13;;;;;;;6.85;1.90;;;25.40;1.00;;;;;;5047575;28;20699;-80
2023/08/21 12:24:39;;;;;;;5.70;1.90;;;25.40;78.50;;;;;;5048426;28;20693;-80
2023/08/21 12:27:06;;;;;;;3.85;1.60;;;25.50;1.00;;;;;;5049347;28;20199;-80
2023/08/21 12:29:31;;;;;;;4.78;1.80;;;25.60;1.00;;;;;;5049535;28;20184;-80
2023/08/21 12:31:57;;;;;;;4.75;1.90;;;25.70;99.90;;;;;;5048432;28;20184;-80
2023/08/21 12:34:22;;;;;;;2.80;1.67;;;25.70;48.30;;;;;;5049039;28;20164;-80
2023/08/21 12:36:50;;;;;;;5.53;1.77;;;25.60;1.00;;;;;;5050052;28;20193;-80
2023/08/21 12:39:16;;;;;;;9.88;2.08;;;25.90;52.40;;;;;;5050234;28;20179;-80
2023/08/21 12:41:42;;;;;;;8.35;1.98;;;25.80;1.00;;;;;;5051017;28;20224;-80
2023/08/21 12:44:08;;;;;;;3.65;1.80;;;25.70;1.00;;;;;;5053095;28;20172;-80
2023/08/21 12:46:35;;;;;;;5.78;2.00;;;25.80;93.40;;;;;;5053532;28;20175;-80